Time;durP1;ratioP1;P1;durP2;ratioP2;P2;SDS_P1;SDS_P2;PMS_P1;PMS_P2;Temp;Humidity;BMP_temperature;BMP_pressure;BME280_temperature;BME280_humidity;BME280_pressure;Samples;Min_cycle;Max_cycle;Signal;HPM_P1;HPM_P2
2021/04/17 00:00:30;;;;;;;9.27;6.80;;;4.00;76.30;;;;;;5093226;28;20252;-81
2021/04/17 00:02:56;;;;;;;10.40;7.07;;;4.00;74.90;;;;;;5088340;28;20215;-81
2021/04/17 00:05:24;;;;;;;9.13;6.90;;;4.10;75.70;;;;;;5093721;28;20256;-81
2021/04/17 00:07:52;;;;;;;9.70;7.88;;;3.90;75.30;;;;;;5088713;28;20207;-81
2021/04/17 00:10:19;;;;;;;8.05;7.00;;;3.80;76.30;;;;;;5090152;28;20656;-81
2021/04/17 00:12:47;;;;;;;8.93;7.40;;;3.70;76.40;;;;;;5086985;28;20195;-81
2021/04/17 00:15:14;;;;;;;9.18;6.95;;;3.50;77.20;;;;;;5090609;28;20663;-80
2021/04/17 00:17:40;;;;;;;11.30;8.40;;;3.40;77.60;;;;;;5099188;28;20280;-81
2021/04/17 00:20:08;;;;;;;7.45;6.55;;;3.40;78.40;;;;;;5092006;28;20206;-81
2021/04/17 00:22:35;;;;;;;8.55;7.13;;;3.40;78.50;;;;;;5101165;28;20602;-81
2021/04/17 00:25:01;;;;;;;9.85;8.10;;;3.40;78.70;;;;;;5085026;28;20206;-81
2021/04/17 00:27:29;;;;;;;8.40;6.97;;;3.30;78.70;;;;;;5092512;28;20214;-81
2021/04/17 00:29:56;;;;;;;9.45;7.53;;;3.30;79.50;;;;;;5089279;28;20203;-81
2021/04/17 00:32:22;;;;;;;8.25;6.97;;;3.50;79.70;;;;;;5092827;28;20285;-81
2021/04/17 00:34:49;;;;;;;7.70;6.95;;;3.60;79.60;;;;;;5096883;28;20215;-81
2021/04/17 00:37:15;;;;;;;11.02;8.23;;;3.50;78.50;;;;;;5090433;28;20241;-80
2021/04/17 00:39:42;;;;;;;11.23;7.95;;;3.60;78.00;;;;;;5089552;28;20291;-80
2021/04/17 00:42:08;;;;;;;8.63;7.80;;;3.70;77.40;;;;;;5094972;28;20251;-81
2021/04/17 00:44:36;;;;;;;9.70;8.05;;;3.90;76.30;;;;;;5092101;28;20195;-82
2021/04/17 00:47:04;;;;;;;7.65;6.85;;;3.70;75.60;;;;;;5095523;28;20233;-81
2021/04/17 00:49:32;;;;;;;8.02;7.22;;;3.60;76.30;;;;;;5091167;28;20211;-81
2021/04/17 00:51:59;;;;;;;8.45;7.60;;;3.50;76.60;;;;;;5087007;28;20213;-81
2021/04/17 00:54:25;;;;;;;11.85;8.50;;;3.60;77.20;;;;;;5093974;28;20264;-81
2021/04/17 00:56:52;;;;;;;9.45;7.47;;;3.60;77.70;;;;;;5087172;28;20567;-81
2021/04/17 00:59:18;;;;;;;10.27;8.75;;;3.40;78.30;;;;;;5096281;28;20202;-81
2021/04/17 01:01:44;;;;;;;9.32;7.57;;;3.50;79.20;;;;;;5089597;28;20293;-81
2021/04/17 01:04:17;;;;;;;9.05;7.05;;;3.40;79.30;;;;;;5085881;28;20679;-81
2021/04/17 01:06:50;;;;;;;10.38;7.18;;;3.40;80.00;;;;;;5100332;28;20286;-81
2021/04/17 01:09:24;;;;;;;10.75;7.85;;;3.60;79.60;;;;;;5085905;28;20202;-81
2021/04/17 01:11:58;;;;;;;11.75;8.73;;;3.70;78.20;;;;;;5090019;28;20194;-81
2021/04/17 01:14:27;;;;;;;14.00;8.63;;;3.80;77.70;;;;;;5088498;28;20330;-81
2021/04/17 01:16:55;;;;;;;17.08;9.40;;;3.80;77.60;;;;;;5090607;28;20229;-81
2021/04/17 01:19:42;;;;;;;11.20;8.95;;;3.80;77.30;;;;;;5082309;28;20214;-81
2021/04/17 01:22:12;;;;;;;9.13;7.60;;;3.80;77.70;;;;;;5091129;28;20206;-81
2021/04/17 01:24:43;;;;;;;10.02;8.63;;;3.80;78.60;;;;;;5080296;28;20203;-81
2021/04/17 01:27:12;;;;;;;11.75;8.15;;;3.70;79.10;;;;;;5087058;28;20202;-81
2021/04/17 01:29:43;;;;;;;9.77;8.02;;;3.60;79.70;;;;;;5087731;28;20191;-81
2021/04/17 01:32:13;;;;;;;11.13;8.73;;;3.50;80.60;;;;;;5090419;28;20206;-81
2021/04/17 01:34:43;;;;;;;9.57;8.57;;;3.60;81.20;;;;;;5092238;28;20195;-81
2021/04/17 01:37:12;;;;;;;12.43;9.07;;;3.80;80.70;;;;;;5089736;28;20198;-82
2021/04/17 01:39:41;;;;;;;12.68;8.10;;;3.60;80.60;;;;;;5097693;28;20194;-81
2021/04/17 01:42:14;;;;;;;10.32;8.40;;;3.50;81.00;;;;;;5086251;28;20269;-81
2021/04/17 01:44:46;;;;;;;10.55;8.60;;;3.50;81.50;;;;;;5083469;28;20195;-81
2021/04/17 01:47:16;;;;;;;11.05;8.23;;;3.50;81.60;;;;;;5090429;28;20942;-81
2021/04/17 01:49:48;;;;;;;10.90;8.27;;;3.30;82.00;;;;;;5085900;28;20199;-81
2021/04/17 01:52:21;;;;;;;10.55;8.30;;;3.30;82.40;;;;;;5085264;28;20208;-81
2021/04/17 01:54:53;;;;;;;12.32;8.95;;;3.30;82.70;;;;;;5090424;28;20207;-81
2021/04/17 01:57:26;;;;;;;11.63;8.77;;;3.30;82.90;;;;;;5085440;28;20558;-81
2021/04/17 01:59:54;;;;;;;12.90;8.00;;;3.40;83.70;;;;;;5091333;28;20190;-82
2021/04/17 02:02:22;;;;;;;10.90;8.70;;;3.40;83.10;;;;;;5090236;28;20214;-81
2021/04/17 02:04:49;;;;;;;11.93;8.82;;;3.60;83.40;;;;;;5088648;28;20210;-81
2021/04/17 02:07:17;;;;;;;13.02;8.77;;;3.70;83.10;;;;;;5080515;28;20558;-81
2021/04/17 02:09:45;;;;;;;14.50;8.57;;;3.80;82.70;;;;;;5091111;28;20225;-81
2021/04/17 02:12:13;;;;;;;10.90;9.27;;;3.80;80.80;;;;;;5089683;28;20198;-81
2021/04/17 02:14:41;;;;;;;11.38;8.60;;;4.00;80.30;;;;;;5085414;28;20202;-82
2021/04/17 02:17:14;;;;;;;9.07;7.25;;;4.00;79.70;;;;;;5097318;28;20734;-82
2021/04/17 02:19:46;;;;;;;12.00;8.93;;;4.00;79.80;;;;;;5080306;28;20198;-81
2021/04/17 02:22:13;;;;;;;9.30;8.00;;;3.70;80.40;;;;;;5090576;28;20260;-81
2021/04/17 02:24:41;;;;;;;10.88;8.35;;;3.40;81.50;;;;;;5086779;28;20202;-82
2021/04/17 02:27:08;;;;;;;14.02;9.40;;;3.10;83.30;;;;;;5091790;28;20206;-81
2021/04/17 02:29:35;;;;;;;11.45;8.98;;;2.80;84.70;;;;;;5088166;28;20304;-81
2021/04/17 02:32:03;;;;;;;12.13;10.80;;;2.70;86.00;;;;;;5090608;28;20196;-81
2021/04/17 02:34:29;;;;;;;14.73;10.40;;;2.90;87.40;;;;;;5090138;28;20563;-82
2021/04/17 02:36:56;;;;;;;15.80;8.63;;;3.00;86.70;;;;;;5086255;28;20222;-82
2021/04/17 02:39:22;;;;;;;9.40;8.35;;;3.10;86.30;;;;;;5090474;28;20198;-82
2021/04/17 02:41:49;;;;;;;12.50;8.18;;;3.10;86.40;;;;;;5085837;28;20198;-81
2021/04/17 02:44:15;;;;;;;13.23;8.50;;;3.20;86.30;;;;;;5091304;28;20202;-81
2021/04/17 02:46:41;;;;;;;13.32;10.35;;;3.00;86.50;;;;;;5085209;28;20562;-82
2021/04/17 02:49:09;;;;;;;12.32;10.43;;;3.30;87.60;;;;;;5087898;28;20210;-81
2021/04/17 02:51:35;;;;;;;15.52;11.45;;;3.40;87.10;;;;;;5088345;28;20234;-82
2021/04/17 02:54:01;;;;;;;14.35;11.95;;;3.50;87.20;;;;;;5082455;28;20280;-81
2021/04/17 02:56:28;;;;;;;15.85;10.95;;;3.60;87.30;;;;;;5091203;28;20210;-81
2021/04/17 02:58:54;;;;;;;13.57;11.30;;;3.50;86.40;;;;;;5084178;28;20241;-81
2021/04/17 03:01:20;;;;;;;13.27;10.35;;;3.60;87.40;;;;;;5097815;28;20237;-82
2021/04/17 03:03:47;;;;;;;14.00;9.50;;;3.50;86.00;;;;;;5085290;28;20198;-81
2021/04/17 03:06:14;;;;;;;13.38;10.00;;;3.30;86.70;;;;;;5090159;28;20194;-81
2021/04/17 03:08:41;;;;;;;14.13;10.75;;;3.10;87.70;;;;;;5093571;28;20337;-81
2021/04/17 03:11:07;;;;;;;13.93;10.75;;;3.00;89.30;;;;;;5088074;28;20201;-81
2021/04/17 03:13:33;;;;;;;16.58;10.73;;;3.10;90.00;;;;;;5089345;28;20210;-81
2021/04/17 03:16:00;;;;;;;14.77;11.10;;;3.20;90.00;;;;;;5091213;28;20305;-81
2021/04/17 03:18:26;;;;;;;14.38;12.50;;;3.30;89.60;;;;;;5093751;28;20206;-81
2021/04/17 03:20:53;;;;;;;14.85;11.05;;;3.20;89.40;;;;;;5087813;28;20201;-81
2021/04/17 03:23:20;;;;;;;12.00;10.30;;;3.20;89.10;;;;;;5097672;28;20212;-82
2021/04/17 03:25:47;;;;;;;13.43;10.40;;;3.20;89.40;;;;;;5089161;28;20202;-81
2021/04/17 03:28:13;;;;;;;12.90;10.77;;;3.10;90.00;;;;;;5093826;28;20249;-81
2021/04/17 03:30:40;;;;;;;13.18;10.75;;;3.10;89.50;;;;;;5089099;28;20269;-82
2021/04/17 03:33:07;;;;;;;14.38;11.00;;;3.10;89.60;;;;;;5099187;28;20313;-81
2021/04/17 03:35:35;;;;;;;14.45;10.07;;;3.20;89.80;;;;;;5091309;28;20211;-81
2021/04/17 03:38:03;;;;;;;13.88;10.93;;;3.20;88.80;;;;;;5093142;28;20226;-81
2021/04/17 03:40:31;;;;;;;17.30;13.05;;;3.00;89.30;;;;;;5093073;28;20201;-82
2021/04/17 03:42:59;;;;;;;13.85;11.18;;;3.00;90.00;;;;;;5085991;28;20203;-81
2021/04/17 03:45:28;;;;;;;14.70;12.70;;;2.90;90.00;;;;;;5090216;28;20760;-81
2021/04/17 03:47:55;;;;;;;15.13;12.50;;;2.90;90.00;;;;;;5106162;28;20988;-81
2021/04/17 03:50:22;;;;;;;13.75;10.40;;;3.10;90.30;;;;;;5087787;28;20559;-80
2021/04/17 03:52:50;;;;;;;14.48;12.13;;;3.00;90.10;;;;;;5096589;28;20237;-81
2021/04/17 03:55:18;;;;;;;15.48;11.45;;;2.90;90.30;;;;;;5090888;28;20226;-81
2021/04/17 03:57:46;;;;;;;14.38;10.60;;;3.30;90.40;;;;;;5093446;28;20221;-80
2021/04/17 04:00:17;;;;;;;16.63;11.93;;;3.30;90.00;;;;;;5096270;28;20554;-81
2021/04/17 04:02:44;;;;;;;14.63;11.52;;;3.30;89.40;;;;;;5093140;28;20213;-81
2021/04/17 04:05:12;;;;;;;14.27;12.55;;;3.10;89.50;;;;;;5097137;28;20873;-81
2021/04/17 04:07:39;;;;;;;14.52;12.85;;;3.30;90.10;;;;;;5088749;28;20210;-81
2021/04/17 04:10:08;;;;;;;12.70;10.60;;;3.50;89.50;;;;;;5091475;28;20202;-81
2021/04/17 04:12:34;;;;;;;18.27;12.30;;;3.60;88.60;;;;;;5093904;28;20242;-81
2021/04/17 04:15:02;;;;;;;15.00;11.68;;;3.70;87.60;;;;;;5092855;28;20201;-81
2021/04/17 04:17:28;;;;;;;15.73;11.98;;;3.70;87.20;;;;;;5091058;28;20249;-81
2021/04/17 04:19:55;;;;;;;18.10;12.95;;;3.60;86.70;;;;;;5092451;28;20206;-81
2021/04/17 04:22:21;;;;;;;16.45;12.30;;;3.60;86.50;;;;;;5091091;28;20206;-81
2021/04/17 04:24:48;;;;;;;18.48;13.98;;;3.70;86.60;;;;;;5092155;28;20753;-81
2021/04/17 04:27:14;;;;;;;16.17;12.32;;;3.70;86.40;;;;;;5090411;28;20243;-81
2021/04/17 04:29:40;;;;;;;18.77;13.60;;;3.70;86.70;;;;;;5093748;28;20203;-81
2021/04/17 04:32:08;;;;;;;19.23;14.38;;;3.70;86.50;;;;;;5091363;28;20191;-81
2021/04/17 04:34:34;;;;;;;17.17;13.68;;;3.80;86.80;;;;;;5089294;28;20199;-81
2021/04/17 04:37:01;;;;;;;17.98;13.25;;;3.80;86.90;;;;;;5095351;28;20639;-81
2021/04/17 04:39:28;;;;;;;15.75;13.15;;;3.80;86.60;;;;;;5085593;28;20229;-81
2021/04/17 04:41:54;;;;;;;17.35;13.85;;;3.90;86.10;;;;;;5096402;28;20202;-81
2021/04/17 04:44:20;;;;;;;15.48;13.18;;;3.90;85.90;;;;;;5085614;28;20206;-82
2021/04/17 04:46:47;;;;;;;14.77;12.55;;;4.00;85.90;;;;;;5092698;28;20202;-81
2021/04/17 04:49:14;;;;;;;17.70;11.85;;;4.00;86.10;;;;;;5087137;28;20202;-82
2021/04/17 04:51:41;;;;;;;17.77;13.18;;;4.00;85.60;;;;;;5092694;28;20207;-82
2021/04/17 04:54:07;;;;;;;18.20;13.18;;;4.00;85.40;;;;;;5089581;28;20912;-82
2021/04/17 04:56:33;;;;;;;20.45;14.23;;;4.00;85.30;;;;;;5091895;28;20250;-81
2021/04/17 04:59:00;;;;;;;17.17;13.23;;;3.90;85.30;;;;;;5086580;28;20203;-81
2021/04/17 05:01:26;;;;;;;15.43;12.35;;;3.90;86.20;;;;;;5091731;28;20289;-81
2021/04/17 05:03:53;;;;;;;19.15;13.30;;;3.90;85.80;;;;;;5097339;28;20209;-81
2021/04/17 05:06:20;;;;;;;18.25;12.27;;;3.70;86.60;;;;;;5091173;28;20202;-81
2021/04/17 05:08:46;;;;;;;20.42;14.18;;;3.80;87.50;;;;;;5091465;28;20202;-81
2021/04/17 05:11:13;;;;;;;17.70;14.02;;;3.80;87.60;;;;;;5084468;28;20200;-81
2021/04/17 05:13:39;;;;;;;16.70;14.35;;;3.80;88.20;;;;;;5082347;28;20607;-81
2021/04/17 05:16:06;;;;;;;17.17;13.68;;;3.90;88.40;;;;;;5083612;28;20265;-81
2021/04/17 05:18:33;;;;;;;20.42;15.25;;;4.10;88.10;;;;;;5090323;28;20202;-82
2021/04/17 05:20:59;;;;;;;16.20;13.80;;;4.00;87.20;;;;;;5098398;28;20203;-81
2021/04/17 05:23:26;;;;;;;18.02;13.85;;;4.10;88.50;;;;;;5091390;28;20218;-81
2021/04/17 05:25:53;;;;;;;15.00;12.85;;;4.10;88.50;;;;;;5091794;28;20198;-81
2021/04/17 05:28:19;;;;;;;16.58;13.57;;;4.20;88.20;;;;;;5091456;28;20241;-82
2021/04/17 05:30:45;;;;;;;18.25;13.32;;;4.30;88.80;;;;;;5096878;28;20277;-82
2021/04/17 05:33:12;;;;;;;18.50;14.02;;;4.50;88.80;;;;;;5091473;28;20271;-81
2021/04/17 05:35:38;;;;;;;18.63;13.70;;;4.60;88.20;;;;;;5090026;28;20253;-82
2021/04/17 05:38:04;;;;;;;17.08;13.23;;;4.80;87.60;;;;;;5087518;28;20203;-82
2021/04/17 05:40:32;;;;;;;19.27;15.18;;;5.00;86.50;;;;;;5091059;28;20233;-82
2021/04/17 05:42:58;;;;;;;16.30;12.20;;;5.10;86.20;;;;;;5110490;28;20233;-82
2021/04/17 05:45:24;;;;;;;19.48;13.93;;;5.20;85.60;;;;;;5097582;28;20198;-82
2021/04/17 05:47:51;;;;;;;19.50;13.77;;;5.30;84.70;;;;;;5090497;28;20198;-82
2021/04/17 05:50:17;;;;;;;15.85;12.98;;;5.30;84.20;;;;;;5089567;28;20741;-82
2021/04/17 05:52:43;;;;;;;17.80;13.07;;;5.30;84.50;;;;;;5090830;28;20202;-82
2021/04/17 05:55:12;;;;;;;16.05;13.93;;;5.40;84.20;;;;;;5090567;28;20205;-84
2021/04/17 05:57:39;;;;;;;16.73;12.93;;;5.50;83.70;;;;;;5091480;28;20854;-84
2021/04/17 06:00:07;;;;;;;15.57;13.98;;;5.60;83.30;;;;;;5091102;28;20241;-85
2021/04/17 06:02:34;;;;;;;17.30;13.93;;;5.70;82.70;;;;;;5089867;28;20215;-84
2021/04/17 06:05:00;;;;;;;15.55;12.80;;;5.70;81.70;;;;;;5090687;28;20246;-84
2021/04/17 06:07:27;;;;;;;16.05;12.20;;;5.70;82.10;;;;;;5091286;28;20655;-84
2021/04/17 06:09:53;;;;;;;16.42;13.15;;;5.90;82.20;;;;;;5090729;28;20679;-84
2021/04/17 06:12:19;;;;;;;14.73;12.52;;;5.90;80.90;;;;;;5091228;28;20210;-83
2021/04/17 06:14:47;;;;;;;16.95;13.70;;;6.00;80.80;;;;;;5090960;28;20252;-84
2021/04/17 06:17:13;;;;;;;19.00;14.27;;;6.10;80.60;;;;;;5090641;28;20311;-84
2021/04/17 06:19:40;;;;;;;17.05;14.10;;;6.00;80.30;;;;;;5089799;28;20206;-83
2021/04/17 06:22:06;;;;;;;20.65;12.95;;;6.00;81.10;;;;;;5105836;28;20674;-84
2021/04/17 06:24:32;;;;;;;17.38;13.60;;;6.00;80.70;;;;;;5093234;28;20230;-83
2021/04/17 06:26:59;;;;;;;19.80;15.50;;;6.20;80.60;;;;;;5092251;28;20644;-83
2021/04/17 06:29:25;;;;;;;17.15;14.10;;;6.40;80.10;;;;;;5100842;28;20202;-84
2021/04/17 06:31:52;;;;;;;15.68;13.25;;;6.40;79.50;;;;;;5091339;28;20746;-84
2021/04/17 06:34:19;;;;;;;14.70;11.88;;;6.40;78.70;;;;;;5093261;28;20243;-85
2021/04/17 06:36:45;;;;;;;21.55;15.13;;;6.30;78.10;;;;;;5085808;28;20264;-84
2021/04/17 06:39:12;;;;;;;17.95;13.40;;;6.30;78.00;;;;;;5089039;28;20222;-84
2021/04/17 06:41:47;;;;;;;17.83;13.57;;;6.10;78.80;;;;;;5086576;28;20217;-84
2021/04/17 06:44:15;;;;;;;19.40;13.13;;;6.00;79.80;;;;;;5096215;28;20194;-84
2021/04/17 06:46:42;;;;;;;14.10;12.02;;;6.30;78.70;;;;;;5092799;28;20249;-83
2021/04/17 06:49:09;;;;;;;21.13;13.55;;;6.60;77.60;;;;;;5091577;28;20250;-83
2021/04/17 06:51:37;;;;;;;17.75;12.90;;;6.80;77.20;;;;;;5105241;28;20221;-84
2021/04/17 06:54:06;;;;;;;17.55;14.05;;;6.80;77.00;;;;;;5092301;28;20202;-83
2021/04/17 06:56:32;;;;;;;15.77;12.75;;;6.80;76.50;;;;;;5096019;28;20682;-83
2021/04/17 06:59:00;;;;;;;16.52;12.93;;;6.70;75.80;;;;;;5094771;28;20245;-84
2021/04/17 07:01:29;;;;;;;20.25;14.57;;;6.80;75.90;;;;;;5088279;28;20298;-84
2021/04/17 07:03:58;;;;;;;17.13;13.52;;;6.80;76.20;;;;;;5091246;28;20199;-83
2021/04/17 07:06:25;;;;;;;18.42;14.52;;;6.90;76.50;;;;;;5093669;28;20206;-84
2021/04/17 07:08:52;;;;;;;14.57;13.00;;;7.20;75.20;;;;;;5090178;28;20214;-83
2021/04/17 07:11:18;;;;;;;16.65;13.15;;;6.90;74.40;;;;;;5090202;28;20826;-84
2021/04/17 07:14:06;;;;;;;22.30;14.57;;;6.60;76.10;;;;;;5090039;28;20194;-84
2021/04/17 07:16:33;;;;;;;19.23;12.63;;;7.10;76.50;;;;;;5077815;28;20271;-83
2021/04/17 07:18:59;;;;;;;17.85;14.48;;;7.50;74.80;;;;;;5086332;28;20747;-84
2021/04/17 07:21:29;;;;;;;18.13;12.85;;;7.70;73.00;;;;;;5087722;28;20569;-84
2021/04/17 07:23:56;;;;;;;17.67;13.98;;;7.60;70.90;;;;;;5090233;28;20209;-84
2021/04/17 07:26:25;;;;;;;18.00;15.00;;;7.50;71.50;;;;;;5089529;28;20204;-83
2021/04/17 07:29:03;;;;;;;14.68;13.05;;;7.40;71.80;;;;;;5085103;28;20241;-83
2021/04/17 07:31:32;;;;;;;18.50;16.25;;;7.00;72.80;;;;;;5091006;28;20745;-83
2021/04/17 07:34:11;;;;;;;20.52;15.13;;;6.80;74.10;;;;;;5091605;28;20195;-84
2021/04/17 07:36:48;;;;;;;18.38;12.27;;;6.50;74.70;;;;;;5092613;28;20217;-84
2021/04/17 07:39:37;;;;;;;17.38;14.40;;;6.50;75.00;;;;;;5100636;28;20654;-84
2021/04/17 07:42:07;;;;;;;21.48;15.55;;;6.50;76.10;;;;;;5106611;28;20187;-84
2021/04/17 07:44:37;;;;;;;13.55;12.10;;;6.90;76.60;;;;;;5094179;28;20210;-84
2021/04/17 07:47:04;;;;;;;16.35;12.80;;;7.20;73.40;;;;;;5090062;28;20205;-84
2021/04/17 07:49:31;;;;;;;14.68;12.35;;;7.00;71.40;;;;;;5089908;28;20222;-84
2021/04/17 07:52:01;;;;;;;15.40;12.88;;;7.40;72.30;;;;;;5089003;28;20194;-84
2021/04/17 07:54:28;;;;;;;13.90;11.75;;;8.00;71.50;;;;;;5084171;28;20206;-84
2021/04/17 07:56:55;;;;;;;16.63;11.95;;;8.10;69.10;;;;;;5095574;28;20711;-85
2021/04/17 07:59:23;;;;;;;19.70;12.13;;;8.40;69.20;;;;;;5103454;28;20225;-85
2021/04/17 08:01:51;;;;;;;14.23;11.90;;;8.40;66.80;;;;;;5107230;28;20221;-85
2021/04/17 08:04:24;;;;;;;12.02;10.52;;;7.90;65.60;;;;;;5102877;28;20203;-85
2021/04/17 08:06:51;;;;;;;16.35;11.15;;;8.30;66.80;;;;;;5099560;28;20648;-84
2021/04/17 08:09:21;;;;;;;12.15;9.95;;;8.60;65.80;;;;;;5098708;28;20210;-83
2021/04/17 08:11:50;;;;;;;11.98;8.75;;;9.00;65.20;;;;;;5113773;28;20210;-85
2021/04/17 08:14:19;;;;;;;10.55;8.50;;;9.40;61.90;;;;;;5101629;28;20236;-86
2021/04/17 08:16:46;;;;;;;11.15;7.80;;;9.80;60.60;;;;;;5113550;28;20646;-83
2021/04/17 08:19:13;;;;;;;8.48;7.30;;;9.90;59.10;;;;;;5104363;28;20198;-83
2021/04/17 08:21:39;;;;;;;9.27;8.23;;;9.90;58.10;;;;;;5090599;28;20645;-84
2021/04/17 08:24:08;;;;;;;9.70;8.35;;;10.00;57.70;;;;;;5091954;28;20238;-83
2021/04/17 08:26:36;;;;;;;10.68;8.60;;;9.80;57.80;;;;;;5092154;28;21348;-83
2021/04/17 08:29:04;;;;;;;9.25;8.20;;;9.80;57.60;;;;;;5101151;28;20194;-83
2021/04/17 08:31:32;;;;;;;8.95;7.30;;;9.90;57.50;;;;;;5109430;28;20202;-83
2021/04/17 08:34:17;;;;;;;9.80;7.82;;;9.80;57.20;;;;;;5100151;28;20677;-83
2021/04/17 08:36:46;;;;;;;8.10;6.68;;;9.80;57.40;;;;;;5090558;28;20212;-83
2021/04/17 08:39:46;;;;;;;8.43;6.13;;;9.90;57.10;;;;;;5087844;28;20798;-83
2021/04/17 08:42:17;;;;;;;11.40;7.90;;;10.10;56.00;;;;;;5008839;28;20758;-84
2021/04/17 08:44:45;;;;;;;16.50;6.80;;;10.40;56.00;;;;;;5002160;28;20202;-84
2021/04/17 08:47:14;;;;;;;8.30;7.50;;;10.60;55.00;;;;;;5039219;28;20231;-83
2021/04/17 08:49:42;;;;;;;10.67;7.63;;;10.70;54.30;;;;;;5091883;28;20206;-82
2021/04/17 08:52:21;;;;;;;8.38;7.40;;;10.70;53.90;;;;;;5092038;28;20639;-81
2021/04/17 08:55:07;;;;;;;8.05;6.70;;;10.70;54.00;;;;;;5092204;28;20214;-81
2021/04/17 08:57:36;;;;;;;6.45;5.85;;;10.50;53.90;;;;;;5092001;28;20622;-81
2021/04/17 09:00:04;;;;;;;8.45;7.65;;;10.60;53.50;;;;;;5091452;28;20297;-84
2021/04/17 09:02:44;;;;;;;8.15;7.03;;;10.70;54.00;;;;;;5092185;28;20264;-83
2021/04/17 09:05:13;;;;;;;8.38;7.35;;;10.90;54.60;;;;;;5092136;28;20264;-82
2021/04/17 09:07:43;;;;;;;9.50;8.40;;;10.40;54.20;;;;;;5091985;28;20242;-83
2021/04/17 09:10:31;;;;;;;9.57;7.50;;;10.90;55.00;;;;;;5090202;28;21065;-83
2021/04/17 09:13:31;;;;;;;8.73;7.75;;;10.90;54.30;;;;;;5092247;28;20623;-84
2021/04/17 09:16:00;;;;;;;11.40;8.47;;;10.90;55.20;;;;;;5090746;28;20654;-83
2021/04/17 09:18:42;;;;;;;7.20;6.50;;;11.00;54.20;;;;;;5091742;28;20660;-82
2021/04/17 09:21:32;;;;;;;8.83;7.90;;;10.50;53.70;;;;;;5089628;28;20632;-82
2021/04/17 09:23:59;;;;;;;8.93;7.07;;;10.00;55.40;;;;;;5091552;28;20670;-82
2021/04/17 09:26:42;;;;;;;9.25;8.30;;;10.20;55.20;;;;;;5091768;28;20651;-82
2021/04/17 09:29:26;;;;;;;8.63;7.77;;;10.20;55.40;;;;;;5090835;28;20210;-82
2021/04/17 09:31:52;;;;;;;7.83;7.03;;;9.90;55.60;;;;;;5091616;28;20731;-82
2021/04/17 09:34:19;;;;;;;7.45;6.65;;;10.50;54.60;;;;;;5091336;28;20623;-82
2021/04/17 09:36:50;;;;;;;7.70;6.90;;;10.90;53.30;;;;;;5091129;28;20585;-82
2021/04/17 09:39:34;;;;;;;7.00;6.30;;;11.10;53.60;;;;;;5090443;28;20202;-82
2021/04/17 09:42:03;;;;;;;7.03;6.30;;;10.20;53.10;;;;;;5091664;28;20554;-82
2021/04/17 09:44:43;;;;;;;9.00;7.13;;;10.30;54.50;;;;;;5091168;28;20636;-82
2021/04/17 09:47:11;;;;;;;8.43;7.17;;;10.60;53.40;;;;;;5091519;28;21183;-82
2021/04/17 09:49:40;;;;;;;8.47;6.93;;;10.80;52.60;;;;;;5090377;28;20616;-83
2021/04/17 09:52:08;;;;;;;8.63;7.53;;;11.00;52.60;;;;;;5090679;28;20656;-82
2021/04/17 09:54:34;;;;;;;8.73;7.80;;;11.20;52.10;;;;;;5090880;28;20961;-82
2021/04/17 09:57:06;;;;;;;10.43;8.00;;;11.40;52.20;;;;;;5090873;28;21258;-83
2021/04/17 09:59:32;;;;;;;9.30;7.60;;;11.60;51.20;;;;;;5090635;28;20620;-82
2021/04/17 10:02:00;;;;;;;8.63;7.80;;;11.60;51.40;;;;;;5090649;28;21082;-82
2021/04/17 10:04:48;;;;;;;8.90;7.80;;;11.10;52.40;;;;;;5090560;28;20678;-82
2021/04/17 10:07:15;;;;;;;8.00;7.20;;;11.00;52.00;;;;;;5090613;28;20620;-82
2021/04/17 10:09:43;;;;;;;7.90;6.90;;;10.10;52.20;;;;;;5090202;28;20652;-80
2021/04/17 10:12:13;;;;;;;9.17;7.10;;;10.40;53.20;;;;;;5090726;28;20670;-80
2021/04/17 10:14:39;;;;;;;6.40;5.33;;;10.30;52.60;;;;;;5089100;28;20623;-80
2021/04/17 10:17:07;;;;;;;8.93;6.88;;;10.70;51.60;;;;;;5090226;28;20679;-81
2021/04/17 10:19:33;;;;;;;10.10;6.73;;;11.20;51.80;;;;;;5090013;28;20213;-81
2021/04/17 10:22:01;;;;;;;8.80;7.00;;;11.50;50.50;;;;;;5089919;28;20678;-81
2021/04/17 10:24:29;;;;;;;8.37;7.10;;;11.50;51.30;;;;;;5090345;28;20604;-81
2021/04/17 10:27:04;;;;;;;7.80;7.00;;;11.30;51.10;;;;;;5072047;28;20680;-81
2021/04/17 10:29:40;;;;;;;8.30;7.50;;;11.30;51.30;;;;;;5089664;28;20630;-81
2021/04/17 10:32:11;;;;;;;10.13;7.10;;;11.60;50.60;;;;;;5090741;28;20669;-81
2021/04/17 10:34:38;;;;;;;6.90;5.97;;;11.80;50.40;;;;;;5090614;28;20655;-81
2021/04/17 10:37:08;;;;;;;7.97;7.20;;;12.00;49.60;;;;;;5089903;28;20694;-81
2021/04/17 10:39:35;;;;;;;8.03;6.70;;;12.10;50.10;;;;;;5089817;28;20613;-80
2021/04/17 10:42:05;;;;;;;8.50;7.10;;;11.40;50.00;;;;;;5089650;28;20636;-81
2021/04/17 10:44:32;;;;;;;7.10;5.73;;;11.50;49.80;;;;;;5090316;28;20616;-81
2021/04/17 10:47:00;;;;;;;7.30;6.10;;;11.50;50.10;;;;;;5090468;28;20616;-81
2021/04/17 10:49:34;;;;;;;5.97;5.30;;;11.60;50.30;;;;;;5089668;28;20616;-81
2021/04/17 10:52:04;;;;;;;8.10;6.00;;;11.50;50.00;;;;;;5090006;28;20665;-81
2021/04/17 10:54:30;;;;;;;8.47;6.20;;;11.50;49.20;;;;;;5089612;28;20631;-81
2021/04/17 10:56:59;;;;;;;7.27;6.57;;;11.60;50.40;;;;;;5090095;28;20655;-81
2021/04/17 10:59:26;;;;;;;7.77;6.00;;;11.80;50.10;;;;;;5089596;28;20675;-81
2021/04/17 11:01:54;;;;;;;7.13;5.87;;;12.00;49.10;;;;;;5089804;28;20664;-81
2021/04/17 11:04:20;;;;;;;5.53;5.00;;;12.20;49.10;;;;;;5090199;28;21156;-81
2021/04/17 11:06:49;;;;;;;5.83;5.23;;;12.00;48.00;;;;;;5089475;28;20620;-80
2021/04/17 11:09:17;;;;;;;7.40;5.40;;;11.90;48.00;;;;;;5071200;28;20628;-80
2021/04/17 11:11:54;;;;;;;6.27;5.63;;;12.10;47.90;;;;;;5090056;28;20636;-81
2021/04/17 11:14:22;;;;;;;6.10;5.50;;;12.40;48.20;;;;;;5088610;28;20694;-81
2021/04/17 11:16:51;;;;;;;6.00;5.40;;;12.70;47.10;;;;;;5090238;28;20835;-81
2021/04/17 11:19:28;;;;;;;5.80;5.30;;;12.60;47.60;;;;;;5089200;28;20727;-82
2021/04/17 11:22:10;;;;;;;8.83;6.23;;;12.80;47.20;;;;;;5089954;28;20627;-81
2021/04/17 11:24:37;;;;;;;6.13;5.40;;;13.30;46.60;;;;;;5090022;28;20616;-82
2021/04/17 11:27:04;;;;;;;5.33;4.27;;;13.40;45.70;;;;;;5089690;28;21234;-81
2021/04/17 11:29:30;;;;;;;6.03;5.13;;;13.40;45.30;;;;;;5089222;28;20620;-81
2021/04/17 11:31:57;;;;;;;7.00;4.80;;;13.30;45.30;;;;;;5089588;28;20613;-81
2021/04/17 11:34:23;;;;;;;5.67;5.00;;;13.10;45.50;;;;;;5092534;28;20648;-81
2021/04/17 11:36:50;;;;;;;5.77;5.17;;;13.10;46.10;;;;;;5093591;28;20652;-81
2021/04/17 11:39:17;;;;;;;6.03;5.20;;;13.40;45.70;;;;;;5092498;28;21176;-81
2021/04/17 11:41:47;;;;;;;5.97;5.37;;;13.90;45.60;;;;;;5093763;28;21005;-82
2021/04/17 11:44:16;;;;;;;16.13;5.53;;;15.00;45.10;;;;;;5093238;28;21223;-82
2021/04/17 11:46:42;;;;;;;6.50;5.90;;;15.40;43.70;;;;;;5093763;28;20620;-82
2021/04/17 11:49:09;;;;;;;4.77;4.37;;;15.80;42.30;;;;;;5092989;28;20619;-82
2021/04/17 11:51:35;;;;;;;5.93;5.37;;;15.70;41.80;;;;;;5093419;28;20681;-82
2021/04/17 11:54:02;;;;;;;5.17;4.53;;;15.00;42.80;;;;;;5093297;28;21286;-82
2021/04/17 11:56:29;;;;;;;6.57;5.90;;;14.80;45.30;;;;;;5093577;28;21204;-82
2021/04/17 11:58:55;;;;;;;6.60;4.83;;;16.30;42.20;;;;;;5092410;28;20646;-82
2021/04/17 12:01:22;;;;;;;5.13;4.63;;;19.20;40.00;;;;;;5093219;28;20701;-83
2021/04/17 12:03:49;;;;;;;6.00;5.37;;;20.10;37.30;;;;;;5093444;28;20612;-82
2021/04/17 12:06:15;;;;;;;5.10;4.70;;;19.10;37.70;;;;;;5093455;28;20626;-81
2021/04/17 12:08:42;;;;;;;6.70;4.67;;;17.50;39.70;;;;;;5092374;28;20602;-81
2021/04/17 12:11:08;;;;;;;6.03;5.43;;;18.40;38.50;;;;;;5093413;28;21235;-82
2021/04/17 12:13:36;;;;;;;5.90;4.47;;;17.50;37.70;;;;;;5092694;28;20652;-82
2021/04/17 12:16:04;;;;;;;6.90;5.17;;;17.40;37.60;;;;;;5091428;28;20746;-82
2021/04/17 12:18:31;;;;;;;5.00;4.50;;;17.10;38.40;;;;;;5092338;28;20668;-82
2021/04/17 12:20:57;;;;;;;8.90;8.20;;;16.80;38.50;;;;;;5092883;28;20659;-82
2021/04/17 12:23:23;;;;;;;5.30;4.80;;;15.90;39.00;;;;;;5092633;28;20719;-82
2021/04/17 12:25:50;;;;;;;5.63;4.60;;;15.30;40.40;;;;;;5092612;28;20636;-82
2021/04/17 12:28:17;;;;;;;4.90;4.50;;;15.10;40.70;;;;;;5092519;28;20612;-81
2021/04/17 12:30:45;;;;;;;4.10;3.80;;;15.30;40.60;;;;;;5073923;28;21088;-82
2021/04/17 12:33:12;;;;;;;4.60;4.20;;;15.10;40.80;;;;;;5092772;28;20678;-82
2021/04/17 12:35:39;;;;;;;6.23;5.70;;;14.90;40.30;;;;;;5092572;28;20624;-81
2021/04/17 12:38:06;;;;;;;5.20;4.80;;;14.10;42.30;;;;;;5092473;28;21176;-81
2021/04/17 12:40:33;;;;;;;10.93;5.33;;;13.90;41.20;;;;;;5073310;28;20639;-82
2021/04/17 12:42:59;;;;;;;4.87;3.80;;;13.80;42.60;;;;;;5092796;28;20625;-81
2021/04/17 12:45:26;;;;;;;4.87;4.40;;;12.80;42.30;;;;;;5092116;28;20640;-81
2021/04/17 12:47:55;;;;;;;6.93;4.00;;;12.00;43.30;;;;;;5092214;28;20649;-81
2021/04/17 12:50:22;;;;;;;4.37;3.97;;;11.90;43.80;;;;;;5091695;28;20947;-81